Time;durP1;ratioP1;P1;durP2;ratioP2;P2;SDS_P1;SDS_P2;PMS_P1;PMS_P2;Temp;Humidity;BMP_temperature;BMP_pressure;BME280_temperature;BME280_humidity;BME280_pressure;Samples;Min_cycle;Max_cycle;Signal;HPM_P1;HPM_P2
2024/01/21 00:01:48;;;;;;;23.77;15.03;;;-3.20;99.90;;;;;;5118746;28;20262;-41
2024/01/21 00:04:13;;;;;;;21.73;16.20;;;-3.30;99.90;;;;;;5117880;28;20189;-43
2024/01/21 00:06:39;;;;;;;19.53;13.33;;;-3.30;99.90;;;;;;5116975;28;20175;-42
2024/01/21 00:09:05;;;;;;;21.93;15.27;;;-3.30;99.90;;;;;;5118376;28;20221;-42
2024/01/21 00:11:31;;;;;;;19.77;14.17;;;-3.30;31.30;;;;;;5100378;28;20172;-43
2024/01/21 00:13:56;;;;;;;19.37;13.37;;;-3.30;1.00;;;;;;5098178;28;20449;-43
2024/01/21 00:16:23;;;;;;;18.27;12.43;;;-3.30;99.90;;;;;;5117553;28;20180;-42
2024/01/21 00:18:48;;;;;;;19.70;12.77;;;-3.30;1.00;;;;;;5116928;28;20172;-41
2024/01/21 00:21:14;;;;;;;20.73;13.00;;;-3.40;99.90;;;;;;5116358;28;20494;-42
2024/01/21 00:23:39;;;;;;;19.57;13.67;;;-3.30;1.00;;;;;;5117224;28;20256;-42
2024/01/21 00:26:05;;;;;;;17.53;11.17;;;-3.40;99.90;;;;;;5116827;28;20299;-44
2024/01/21 00:28:31;;;;;;;21.37;12.13;;;-3.40;1.00;;;;;;5116195;28;20387;-43
2024/01/21 00:30:56;;;;;;;19.00;11.33;;;-3.40;1.00;;;;;;5117611;28;20186;-43
2024/01/21 00:33:22;;;;;;;17.03;12.03;;;-3.50;1.00;;;;;;5117241;28;20334;-40
2024/01/21 00:35:47;;;;;;;15.73;11.07;;;-3.50;1.00;;;;;;5117315;28;20270;-44
2024/01/21 00:38:13;;;;;;;13.67;10.00;;;-3.50;1.00;;;;;;5115916;28;20602;-44
2024/01/21 00:40:39;;;;;;;15.70;9.63;;;-3.60;1.00;;;;;;5116717;28;20209;-41
2024/01/21 00:43:04;;;;;;;13.13;9.50;;;-3.60;1.00;;;;;;5117468;28;20480;-41
2024/01/21 00:45:29;;;;;;;11.87;8.50;;;-3.60;1.00;;;;;;5116463;28;20207;-40
2024/01/21 00:47:55;;;;;;;11.93;8.50;;;-3.60;1.00;;;;;;5116929;28;20187;-43
2024/01/21 00:50:22;;;;;;;12.37;8.73;;;-3.70;1.00;;;;;;5116983;28;20183;-42
2024/01/21 00:52:47;;;;;;;12.87;8.77;;;-3.70;1.00;;;;;;5117024;28;20190;-41
2024/01/21 00:55:13;;;;;;;13.77;9.03;;;-3.70;85.00;;;;;;5117292;28;20532;-39
2024/01/21 00:57:38;;;;;;;12.17;8.93;;;-3.60;2.70;;;;;;5117183;28;20222;-41
2024/01/21 01:00:05;;;;;;;16.03;9.47;;;-3.60;41.50;;;;;;5114585;28;20644;-42
2024/01/21 01:02:31;;;;;;;13.67;8.80;;;-3.70;99.90;;;;;;5097929;28;20189;-42
2024/01/21 01:04:56;;;;;;;9.93;7.80;;;-3.60;99.90;;;;;;5115554;28;20472;-40
2024/01/21 01:07:22;;;;;;;12.90;9.93;;;-3.60;97.70;;;;;;5115658;28;20183;-40
2024/01/21 01:09:47;;;;;;;16.10;9.70;;;-3.50;1.00;;;;;;5116646;28;20224;-40
2024/01/21 01:12:13;;;;;;;11.90;7.97;;;-3.50;1.00;;;;;;5116331;28;20168;-41
2024/01/21 01:14:40;;;;;;;11.90;8.70;;;-3.50;1.00;;;;;;5098510;28;20273;-42
2024/01/21 01:17:06;;;;;;;11.50;7.67;;;-3.50;99.90;;;;;;5116539;27;20184;-41
2024/01/21 01:19:32;;;;;;;12.47;8.40;;;-3.40;99.90;;;;;;5116230;28;20476;-40
2024/01/21 01:21:58;;;;;;;11.80;8.47;;;-3.40;18.70;;;;;;5117690;28;20461;-40
2024/01/21 01:24:23;;;;;;;15.07;9.70;;;-3.50;66.80;;;;;;5117643;28;20203;-44
2024/01/21 01:26:49;;;;;;;15.80;9.00;;;-3.50;99.90;;;;;;5117521;28;20319;-41
2024/01/21 01:29:14;;;;;;;11.10;8.47;;;-3.50;99.90;;;;;;5098953;28;20191;-41
2024/01/21 01:31:40;;;;;;;13.37;8.40;;;-3.50;99.90;;;;;;5116947;28;20618;-41
2024/01/21 01:34:05;;;;;;;11.03;7.80;;;-3.50;99.90;;;;;;5097365;28;20299;-40
2024/01/21 01:36:31;;;;;;;15.13;9.43;;;-3.50;99.90;;;;;;5115814;28;20184;-40
2024/01/21 01:38:57;;;;;;;12.80;8.83;;;-3.50;99.90;;;;;;5116032;28;20176;-44
2024/01/21 01:41:22;;;;;;;13.77;9.73;;;-3.50;55.90;;;;;;5117177;28;20243;-42
2024/01/21 01:43:48;;;;;;;14.23;9.70;;;-3.40;1.00;;;;;;5116592;28;20190;-41
2024/01/21 01:46:14;;;;;;;14.10;9.93;;;-3.40;1.00;;;;;;5116560;28;20211;-45
2024/01/21 01:48:40;;;;;;;12.90;9.10;;;-3.30;1.00;;;;;;5116060;28;20788;-41
2024/01/21 01:51:06;;;;;;;13.03;9.90;;;-3.30;99.90;;;;;;5115934;28;20499;-42
2024/01/21 01:53:33;;;;;;;13.07;9.43;;;-3.20;1.00;;;;;;5116382;28;20184;-42
2024/01/21 01:55:59;;;;;;;15.40;9.83;;;-3.10;99.90;;;;;;5115676;28;20430;-44
2024/01/21 01:58:27;;;;;;;11.80;8.60;;;-3.00;1.00;;;;;;5115021;28;20433;-45
2024/01/21 02:00:53;;;;;;;12.07;9.03;;;-3.00;1.00;;;;;;5115157;28;20494;-42
2024/01/21 02:03:18;;;;;;;15.20;10.90;;;-3.00;1.00;;;;;;5114465;28;20418;-43
2024/01/21 02:05:45;;;;;;;13.50;10.43;;;-2.90;1.00;;;;;;5115375;28;20283;-41
2024/01/21 02:08:11;;;;;;;13.00;9.17;;;-2.90;99.90;;;;;;5114865;28;20195;-41
2024/01/21 02:10:36;;;;;;;12.70;9.33;;;-2.80;99.90;;;;;;5114270;28;20440;-44
2024/01/21 02:13:02;;;;;;;14.07;10.00;;;-2.80;99.90;;;;;;5098480;28;20472;-42
2024/01/21 02:15:27;;;;;;;14.27;10.10;;;-2.80;25.60;;;;;;5115085;28;20191;-42
2024/01/21 02:17:53;;;;;;;15.27;10.57;;;-2.70;1.00;;;;;;5113532;28;20175;-44
2024/01/21 02:20:18;;;;;;;13.97;9.87;;;-2.70;1.00;;;;;;5115824;28;20198;-43
2024/01/21 02:22:44;;;;;;;13.87;9.87;;;-2.70;1.00;;;;;;5115935;28;20256;-43
2024/01/21 02:25:10;;;;;;;13.97;9.60;;;-2.70;1.00;;;;;;5115799;28;20269;-43
2024/01/21 02:27:38;;;;;;;13.53;9.70;;;-2.60;99.90;;;;;;5115635;28;20267;-41
2024/01/21 02:30:04;;;;;;;12.03;9.10;;;-2.60;99.90;;;;;;5116510;28;20409;-42
2024/01/21 02:32:29;;;;;;;17.77;10.00;;;-2.60;99.90;;;;;;5118649;28;20425;-41
2024/01/21 02:34:55;;;;;;;14.60;9.93;;;-2.60;99.90;;;;;;5084889;28;20543;-44
2024/01/21 02:37:21;;;;;;;13.80;9.30;;;-2.60;99.90;;;;;;5120518;28;20188;-43
2024/01/21 02:39:46;;;;;;;13.90;9.50;;;-2.60;99.90;;;;;;5119785;28;20270;-41
2024/01/21 02:42:12;;;;;;;14.80;9.87;;;-2.60;99.90;;;;;;5120341;28;20171;-45
2024/01/21 02:44:37;;;;;;;13.03;8.27;;;-2.60;99.90;;;;;;5120368;28;20212;-43
2024/01/21 02:47:03;;;;;;;13.70;10.03;;;-2.60;99.90;;;;;;5120252;28;20244;-44
2024/01/21 02:49:29;;;;;;;12.23;8.93;;;-2.60;91.20;;;;;;5120369;28;20485;-41
2024/01/21 02:51:58;;;;;;;13.40;8.87;;;-2.60;1.00;;;;;;5119549;28;20807;-45
2024/01/21 02:54:24;;;;;;;10.50;7.93;;;-2.60;20.90;;;;;;5118958;28;20788;-42
2024/01/21 02:56:50;;;;;;;11.40;8.30;;;-2.60;99.90;;;;;;5119065;28;20867;-45
2024/01/21 02:59:15;;;;;;;13.10;9.50;;;-2.70;99.90;;;;;;5118620;28;20444;-41
2024/01/21 03:01:41;;;;;;;12.20;8.17;;;-2.70;99.90;;;;;;5118260;28;20190;-45
2024/01/21 03:04:12;;;;;;;11.53;8.87;;;-2.80;99.90;;;;;;5117402;28;20183;-42
2024/01/21 03:06:39;;;;;;;13.53;7.80;;;-2.80;99.90;;;;;;5120075;28;20183;-42
2024/01/21 03:09:04;;;;;;;9.20;7.50;;;-2.80;99.90;;;;;;5119411;28;20453;-42
2024/01/21 03:11:32;;;;;;;8.87;6.60;;;-2.80;99.90;;;;;;5119617;28;20771;-42
2024/01/21 03:13:57;;;;;;;9.17;6.70;;;-2.80;99.90;;;;;;5118970;28;20180;-41
2024/01/21 03:16:23;;;;;;;11.93;8.03;;;-2.90;1.00;;;;;;5118742;28;20906;-41
2024/01/21 03:18:48;;;;;;;12.20;8.27;;;-2.90;1.00;;;;;;5118824;28;20647;-42
2024/01/21 03:21:14;;;;;;;10.60;7.57;;;-2.90;1.00;;;;;;5118777;28;20171;-42
2024/01/21 03:23:39;;;;;;;10.00;6.63;;;-2.90;1.00;;;;;;5117941;28;20187;-44
2024/01/21 03:26:05;;;;;;;8.33;7.00;;;-2.90;1.00;;;;;;5117894;28;20207;-42
2024/01/21 03:28:30;;;;;;;8.13;6.03;;;-2.90;1.00;;;;;;5116403;28;20264;-42
2024/01/21 03:30:56;;;;;;;9.53;6.87;;;-2.90;1.00;;;;;;5117557;28;20498;-43
2024/01/21 03:33:21;;;;;;;9.03;6.57;;;-3.00;1.00;;;;;;5100947;28;20555;-41
2024/01/21 03:35:47;;;;;;;9.00;7.00;;;-3.00;1.00;;;;;;5119059;28;20337;-41
2024/01/21 03:38:13;;;;;;;9.83;7.00;;;-3.00;5.80;;;;;;5118106;28;20195;-42
2024/01/21 03:40:39;;;;;;;9.20;6.80;;;-3.10;99.90;;;;;;5117889;28;20182;-41
2024/01/21 03:43:04;;;;;;;10.90;7.00;;;-3.10;99.90;;;;;;5117470;28;20433;-44
2024/01/21 03:45:30;;;;;;;11.87;8.10;;;-3.00;99.90;;;;;;5117744;28;20239;-42
2024/01/21 03:47:56;;;;;;;10.27;7.00;;;-3.00;99.90;;;;;;5116197;28;20694;-42
2024/01/21 03:50:21;;;;;;;10.33;7.70;;;-3.10;99.90;;;;;;5098631;28;20172;-41
2024/01/21 03:52:47;;;;;;;9.17;6.67;;;-3.10;99.90;;;;;;5116902;28;20835;-41
2024/01/21 03:55:15;;;;;;;7.63;6.70;;;-3.20;1.00;;;;;;5117006;28;20664;-41
2024/01/21 03:57:40;;;;;;;7.27;6.50;;;-3.20;1.00;;;;;;5117453;28;20187;-43
2024/01/21 04:00:08;;;;;;;10.40;7.10;;;-3.10;1.00;;;;;;5117255;28;20418;-44
2024/01/21 04:02:34;;;;;;;9.43;6.03;;;-3.10;1.00;;;;;;5118244;28;20206;-42
2024/01/21 04:05:00;;;;;;;9.00;5.70;;;-3.10;1.00;;;;;;5118190;28;20574;-40
2024/01/21 04:07:25;;;;;;;10.03;6.40;;;-2.90;10.00;;;;;;5115961;28;20490;-42
2024/01/21 04:09:51;;;;;;;9.00;6.20;;;-2.40;1.00;;;;;;5115711;28;20430;-41
2024/01/21 04:12:16;;;;;;;8.27;6.00;;;-2.20;99.90;;;;;;5116092;28;20518;-42
2024/01/21 04:14:42;;;;;;;7.20;5.43;;;-2.20;99.90;;;;;;5098019;28;20194;-44
2024/01/21 04:17:08;;;;;;;10.47;6.37;;;-2.10;99.90;;;;;;5115353;28;20179;-44
2024/01/21 04:19:34;;;;;;;8.97;6.30;;;-2.30;1.00;;;;;;5115214;28;20183;-41
2024/01/21 04:22:00;;;;;;;12.10;6.23;;;-2.40;40.30;;;;;;5116396;28;20437;-41
2024/01/21 04:24:26;;;;;;;8.30;5.70;;;-2.50;99.90;;;;;;5117493;28;20278;-40
2024/01/21 04:26:52;;;;;;;9.13;6.17;;;-2.60;99.90;;;;;;5117678;28;20724;-41
2024/01/21 04:29:17;;;;;;;7.57;5.60;;;-2.70;99.90;;;;;;5098441;28;20178;-43
2024/01/21 04:31:46;;;;;;;8.23;5.30;;;-2.70;1.00;;;;;;5116883;28;20176;-40
2024/01/21 04:34:11;;;;;;;9.37;6.40;;;-2.80;1.00;;;;;;5116424;28;20242;-41
2024/01/21 04:36:37;;;;;;;8.63;6.77;;;-2.80;1.00;;;;;;5117584;28;20409;-40
2024/01/21 04:39:03;;;;;;;9.40;5.80;;;-2.90;82.60;;;;;;5099413;28;20167;-42
2024/01/21 04:41:28;;;;;;;9.20;7.83;;;-2.90;99.90;;;;;;5116294;28;20179;-41
2024/01/21 04:43:54;;;;;;;10.20;6.10;;;-2.90;99.90;;;;;;5115765;28;20211;-41
2024/01/21 04:46:19;;;;;;;8.53;6.67;;;-3.00;99.90;;;;;;5115368;28;20207;-43
2024/01/21 04:48:45;;;;;;;8.97;6.77;;;-3.00;99.90;;;;;;5115277;28;20168;-44
2024/01/21 04:51:11;;;;;;;9.90;6.77;;;-3.00;99.90;;;;;;5114636;28;20163;-45
2024/01/21 04:53:37;;;;;;;9.50;6.67;;;-3.00;99.90;;;;;;5114066;28;20256;-42
2024/01/21 04:56:04;;;;;;;7.93;6.23;;;-3.00;99.90;;;;;;5097025;28;20583;-42
2024/01/21 04:58:29;;;;;;;7.40;6.63;;;-3.00;99.90;;;;;;5116153;28;20767;-40
2024/01/21 05:00:55;;;;;;;10.13;7.07;;;-3.00;1.00;;;;;;5116174;28;20434;-42
2024/01/21 05:03:20;;;;;;;10.27;7.43;;;-3.00;1.00;;;;;;5116490;28;20582;-43
2024/01/21 05:05:47;;;;;;;10.13;6.80;;;-3.00;1.00;;;;;;5114707;28;20218;-41
2024/01/21 05:08:13;;;;;;;7.70;6.40;;;-3.00;1.00;;;;;;5113346;28;20187;-41
2024/01/21 05:10:39;;;;;;;9.80;6.43;;;-3.00;1.00;;;;;;5113584;28;20421;-42
2024/01/21 05:13:04;;;;;;;6.77;5.80;;;-2.90;1.00;;;;;;5113824;28;20190;-42
2024/01/21 05:15:30;;;;;;;10.93;8.40;;;-2.90;1.00;;;;;;5114778;28;20254;-41
2024/01/21 05:17:56;;;;;;;9.67;6.90;;;-2.90;1.00;;;;;;5116568;28;20214;-41
2024/01/21 05:20:22;;;;;;;9.00;7.13;;;-2.90;1.00;;;;;;5116683;28;20252;-41
2024/01/21 05:22:48;;;;;;;10.13;7.33;;;-2.90;53.20;;;;;;5116051;28;20425;-43
2024/01/21 05:25:14;;;;;;;10.17;7.17;;;-3.00;99.90;;;;;;5115254;28;20484;-42
2024/01/21 05:27:39;;;;;;;9.20;6.80;;;-3.00;1.00;;;;;;5116108;28;20417;-44
2024/01/21 05:30:06;;;;;;;7.60;6.20;;;-3.00;99.90;;;;;;5079948;28;20176;-40
2024/01/21 05:32:32;;;;;;;10.70;6.93;;;-3.00;99.90;;;;;;5116115;28;20258;-41
2024/01/21 05:34:57;;;;;;;9.13;7.17;;;-3.10;99.90;;;;;;5115871;28;20580;-42
2024/01/21 05:37:23;;;;;;;10.17;7.40;;;-3.10;1.00;;;;;;5113270;28;20433;-41
2024/01/21 05:39:48;;;;;;;11.53;7.17;;;-3.00;1.00;;;;;;5114272;28;20219;-41
2024/01/21 05:42:14;;;;;;;9.37;7.20;;;-3.00;1.00;;;;;;5113763;28;20608;-41
2024/01/21 05:44:39;;;;;;;9.97;6.90;;;-3.00;1.00;;;;;;5095412;28;20322;-42
2024/01/21 05:47:05;;;;;;;10.60;7.90;;;-3.00;1.00;;;;;;5114087;28;20200;-41
2024/01/21 05:49:30;;;;;;;9.43;6.23;;;-2.90;1.00;;;;;;5114098;28;20187;-42
2024/01/21 05:51:56;;;;;;;8.50;7.00;;;-2.90;1.00;;;;;;5114053;28;20206;-42
2024/01/21 05:54:22;;;;;;;8.60;7.17;;;-2.90;1.00;;;;;;5115258;28;20416;-43
2024/01/21 05:56:47;;;;;;;8.93;7.87;;;-2.90;99.90;;;;;;5115025;28;20442;-42
2024/01/21 05:59:16;;;;;;;10.80;6.87;;;-2.90;99.90;;;;;;5114827;28;20206;-42
2024/01/21 06:01:42;;;;;;;9.53;6.93;;;-2.90;99.90;;;;;;5114992;28;20183;-45
2024/01/21 06:04:08;;;;;;;8.60;7.27;;;-2.90;1.00;;;;;;5115403;28;20417;-42
2024/01/21 06:06:33;;;;;;;7.77;7.00;;;-3.00;1.00;;;;;;5119134;28;20689;-42
2024/01/21 06:08:59;;;;;;;11.27;8.00;;;-2.90;1.00;;;;;;5120094;28;20241;-41
2024/01/21 06:11:26;;;;;;;8.20;6.87;;;-2.90;10.00;;;;;;5119001;28;20569;-42
2024/01/21 06:13:51;;;;;;;8.70;6.67;;;-3.00;99.90;;;;;;5117951;28;20241;-40
2024/01/21 06:16:17;;;;;;;10.40;7.37;;;-3.00;99.90;;;;;;5117927;28;20429;-41
2024/01/21 06:18:43;;;;;;;11.63;7.57;;;-3.00;99.90;;;;;;5118454;28;20550;-43
2024/01/21 06:21:08;;;;;;;10.53;8.80;;;-3.00;99.90;;;;;;5117710;28;20492;-42
2024/01/21 06:23:34;;;;;;;10.17;8.47;;;-3.00;99.90;;;;;;5119029;28;20615;-40
2024/01/21 06:25:59;;;;;;;12.53;8.47;;;-3.10;1.00;;;;;;5119389;28;20306;-42
2024/01/21 06:28:25;;;;;;;10.30;9.03;;;-3.10;1.00;;;;;;5119339;28;20350;-44
2024/01/21 06:30:50;;;;;;;9.47;8.40;;;-3.10;1.00;;;;;;5119512;28;20180;-42
2024/01/21 06:33:16;;;;;;;11.70;8.20;;;-3.10;1.00;;;;;;5119944;28;20164;-42
2024/01/21 06:35:41;;;;;;;12.13;8.90;;;-3.10;1.00;;;;;;5119570;28;20474;-44
2024/01/21 06:38:07;;;;;;;11.60;9.50;;;-3.20;99.90;;;;;;5099850;28;20566;-42
2024/01/21 06:40:33;;;;;;;11.00;8.30;;;-3.10;99.90;;;;;;5117311;28;20264;-40
2024/01/21 06:42:58;;;;;;;11.83;9.83;;;-3.10;99.90;;;;;;5118210;28;20445;-43
2024/01/21 06:45:24;;;;;;;11.13;8.00;;;-3.10;99.90;;;;;;5117975;28;20191;-41
2024/01/21 06:47:50;;;;;;;9.57;8.27;;;-3.10;99.90;;;;;;5118933;28;20465;-43
2024/01/21 06:50:15;;;;;;;8.33;7.20;;;-3.10;86.80;;;;;;5119539;28;20187;-42
2024/01/21 06:52:41;;;;;;;13.23;8.50;;;-3.10;27.90;;;;;;5118950;28;20172;-41
2024/01/21 06:55:07;;;;;;;9.60;7.97;;;-3.10;93.50;;;;;;5116941;28;20184;-43
2024/01/21 06:57:32;;;;;;;9.67;8.17;;;-3.10;99.90;;;;;;5097644;28;20284;-43
2024/01/21 06:59:58;;;;;;;10.20;8.50;;;-3.10;99.90;;;;;;5116069;28;20195;-41
2024/01/21 07:02:23;;;;;;;10.50;8.20;;;-3.10;1.00;;;;;;5117485;28;20214;-43
2024/01/21 07:04:49;;;;;;;11.40;9.37;;;-3.00;1.00;;;;;;5116914;28;20383;-42
2024/01/21 07:07:14;;;;;;;12.60;8.53;;;-3.00;1.00;;;;;;5117502;28;20210;-43
2024/01/21 07:09:43;;;;;;;10.40;8.50;;;-2.90;1.00;;;;;;5117172;28;20529;-42
2024/01/21 07:12:09;;;;;;;9.60;8.17;;;-2.90;1.00;;;;;;5117471;28;20167;-41
2024/01/21 07:14:34;;;;;;;11.03;9.07;;;-2.80;1.00;;;;;;5116731;28;20433;-41
2024/01/21 07:17:01;;;;;;;11.53;9.50;;;-2.80;1.00;;;;;;5115151;28;20447;-41
2024/01/21 07:19:27;;;;;;;10.87;9.27;;;-2.80;1.00;;;;;;5116948;28;20172;-41
2024/01/21 07:21:52;;;;;;;11.03;9.40;;;-2.70;99.90;;;;;;5115741;28;20436;-42
2024/01/21 07:24:18;;;;;;;12.60;9.60;;;-2.60;99.90;;;;;;5117435;28;20199;-41
2024/01/21 07:26:43;;;;;;;11.97;9.10;;;-2.60;99.90;;;;;;5117617;28;20529;-41
2024/01/21 07:29:09;;;;;;;9.77;8.10;;;-2.50;99.90;;;;;;5116660;28;20729;-42
2024/01/21 07:31:34;;;;;;;11.90;8.73;;;-2.40;99.90;;;;;;5116042;28;20579;-44
2024/01/21 07:34:00;;;;;;;11.00;8.60;;;-2.30;34.50;;;;;;5117713;28;20230;-42
2024/01/21 07:36:25;;;;;;;10.90;8.40;;;-2.20;1.00;;;;;;5118831;28;20262;-42
2024/01/21 07:38:51;;;;;;;11.57;9.67;;;-2.10;1.00;;;;;;5117957;28;20184;-41
2024/01/21 07:41:16;;;;;;;11.07;9.40;;;-2.00;1.00;;;;;;5117341;28;20195;-40
2024/01/21 07:43:42;;;;;;;11.60;9.60;;;-1.90;99.90;;;;;;5116605;28;20184;-43
2024/01/21 07:46:07;;;;;;;10.87;8.67;;;-1.80;1.00;;;;;;5116822;28;20272;-43
2024/01/21 07:48:33;;;;;;;13.60;9.67;;;-1.60;1.00;;;;;;5115719;28;20639;-42
2024/01/21 07:50:58;;;;;;;11.13;9.90;;;-1.40;99.90;;;;;;5116451;28;20283;-43
2024/01/21 07:53:25;;;;;;;11.90;9.90;;;-1.40;99.90;;;;;;5116061;28;20180;-41
2024/01/21 07:55:51;;;;;;;10.73;9.53;;;-1.30;91.80;;;;;;5116399;28;20175;-43
2024/01/21 07:58:16;;;;;;;11.83;9.40;;;-1.20;99.90;;;;;;5099433;28;20549;-42
2024/01/21 08:00:45;;;;;;;11.80;8.40;;;-1.00;46.90;;;;;;5118339;28;20176;-43
2024/01/21 08:03:11;;;;;;;10.60;8.70;;;-0.80;1.00;;;;;;5117901;28;20174;-42
2024/01/21 08:05:36;;;;;;;11.13;9.67;;;-0.70;1.00;;;;;;5116819;28;20473;-41
2024/01/21 08:08:02;;;;;;;10.70;8.83;;;-0.40;99.90;;;;;;5117504;28;20312;-44
2024/01/21 08:10:28;;;;;;;11.17;9.07;;;-0.20;99.90;;;;;;5117371;28;20245;-41
2024/01/21 08:12:54;;;;;;;12.53;9.47;;;-0.10;16.30;;;;;;5099418;28;20413;-45
2024/01/21 08:15:19;;;;;;;9.57;8.13;;;0.20;1.00;;;;;;5117456;28;20183;-40
2024/01/21 08:17:45;;;;;;;11.50;8.53;;;0.40;1.00;;;;;;5116886;28;20429;-43
2024/01/21 08:20:11;;;;;;;10.17;8.50;;;0.60;1.00;;;;;;5117090;28;20182;-44
2024/01/21 08:22:37;;;;;;;13.20;9.70;;;0.80;1.00;;;;;;5116298;28;20532;-43
2024/01/21 08:25:03;;;;;;;12.93;11.20;;;0.90;99.90;;;;;;5116736;28;20584;-41
2024/01/21 08:27:31;;;;;;;18.47;12.70;;;1.00;99.90;;;;;;5099240;28;20744;-43
2024/01/21 08:29:56;;;;;;;10.00;8.73;;;1.00;99.90;;;;;;5100206;28;20418;-42
2024/01/21 08:32:22;;;;;;;13.70;10.10;;;1.10;99.90;;;;;;5116974;28;20427;-43
2024/01/21 08:34:47;;;;;;;13.70;9.93;;;1.00;99.90;;;;;;5116751;28;20232;-41
2024/01/21 08:37:13;;;;;;;11.10;9.20;;;1.00;99.90;;;;;;5098345;28;20179;-41
2024/01/21 08:39:38;;;;;;;12.37;9.47;;;1.10;99.90;;;;;;5117157;28;20200;-41
2024/01/21 08:42:05;;;;;;;11.77;9.43;;;1.20;99.90;;;;;;5116871;28;20180;-41
2024/01/21 08:44:30;;;;;;;10.90;8.57;;;1.30;99.90;;;;;;5099340;28;20199;-43
2024/01/21 08:46:56;;;;;;;11.67;10.07;;;1.40;99.90;;;;;;5082583;28;20430;-41
2024/01/21 08:49:22;;;;;;;8.47;7.50;;;1.60;99.90;;;;;;5116848;28;20176;-42
2024/01/21 08:51:48;;;;;;;11.20;9.90;;;1.70;99.90;;;;;;5116642;28;20421;-44
2024/01/21 08:54:13;;;;;;;11.00;9.60;;;1.60;76.60;;;;;;5117690;28;20176;-44
2024/01/21 08:56:39;;;;;;;12.27;9.40;;;1.60;99.90;;;;;;5117155;28;20191;-41
2024/01/21 08:59:04;;;;;;;12.53;9.47;;;1.60;55.20;;;;;;5116834;28;20183;-44
2024/01/21 09:01:30;;;;;;;15.20;9.90;;;1.50;83.20;;;;;;5115575;28;20180;-43
2024/01/21 09:03:55;;;;;;;12.53;10.03;;;1.50;97.90;;;;;;5115563;28;20187;-42
2024/01/21 09:06:21;;;;;;;11.20;10.00;;;1.40;97.30;;;;;;5115156;28;20594;-44
2024/01/21 09:08:53;;;;;;;12.37;9.77;;;1.30;99.90;;;;;;5115733;28;20306;-44
2024/01/21 09:11:20;;;;;;;13.63;9.97;;;1.20;99.90;;;;;;5097534;28;20433;-41
2024/01/21 09:13:45;;;;;;;14.13;11.27;;;1.10;99.90;;;;;;5097950;28;20410;-44
2024/01/21 09:16:19;;;;;;;14.10;10.70;;;0.90;99.90;;;;;;5115159;28;20690;-41
2024/01/21 09:18:45;;;;;;;13.23;11.20;;;0.80;99.90;;;;;;5097322;28;20168;-42
2024/01/21 09:21:11;;;;;;;13.23;10.77;;;0.80;99.90;;;;;;5115379;28;20549;-43
2024/01/21 09:23:36;;;;;;;12.97;10.40;;;0.80;99.90;;;;;;5115638;28;20450;-42
2024/01/21 09:26:02;;;;;;;13.60;10.23;;;0.90;99.90;;;;;;5115088;28;20523;-44
2024/01/21 09:28:28;;;;;;;12.93;10.23;;;0.90;99.90;;;;;;5113895;28;20557;-40
2024/01/21 09:30:53;;;;;;;13.60;9.87;;;1.00;99.90;;;;;;5114339;28;20716;-41
2024/01/21 09:33:20;;;;;;;13.20;9.93;;;1.10;99.90;;;;;;5114946;28;20391;-40
2024/01/21 09:35:45;;;;;;;15.83;11.70;;;1.20;99.90;;;;;;5114144;28;20501;-43
2024/01/21 09:38:13;;;;;;;13.87;10.00;;;1.20;99.90;;;;;;5095767;28;20438;-42
2024/01/21 09:40:39;;;;;;;12.60;10.80;;;1.30;99.90;;;;;;5114186;28;20446;-42
2024/01/21 09:43:05;;;;;;;12.67;9.97;;;1.50;99.90;;;;;;5114730;28;20432;-40
2024/01/21 09:45:34;;;;;;;14.00;10.43;;;1.30;99.90;;;;;;5114850;28;20748;-41
2024/01/21 09:48:00;;;;;;;12.70;10.97;;;1.50;99.90;;;;;;5098158;28;20175;-45
2024/01/21 09:50:26;;;;;;;12.97;9.80;;;1.70;99.90;;;;;;5114777;28;20838;-42
2024/01/21 09:52:51;;;;;;;13.37;9.93;;;2.00;99.90;;;;;;5097467;28;20429;-45
2024/01/21 09:55:17;;;;;;;12.83;10.63;;;2.30;56.10;;;;;;5115040;28;20213;-42
2024/01/21 09:57:43;;;;;;;14.20;11.97;;;2.40;1.00;;;;;;5114790;28;20183;-41
2024/01/21 10:00:10;;;;;;;12.67;11.27;;;2.40;1.00;;;;;;5095508;28;20199;-41
2024/01/21 10:02:36;;;;;;;13.13;10.20;;;2.70;1.00;;;;;;5096357;28;20195;-40
2024/01/21 10:05:02;;;;;;;13.33;10.60;;;2.80;1.00;;;;;;5095200;28;20472;-42
2024/01/21 10:07:27;;;;;;;13.10;9.87;;;3.00;1.00;;;;;;5114362;28;20592;-41
2024/01/21 10:09:57;;;;;;;11.17;9.60;;;3.20;1.00;;;;;;5114538;28;20418;-41
2024/01/21 10:12:26;;;;;;;13.77;9.90;;;3.40;1.00;;;;;;5115017;28;20206;-42
2024/01/21 10:14:52;;;;;;;11.90;10.47;;;3.50;1.00;;;;;;5114850;28;20422;-41
2024/01/21 10:17:26;;;;;;;12.33;10.33;;;3.80;1.00;;;;;;5115800;28;20437;-42
2024/01/21 10:19:53;;;;;;;14.33;11.97;;;4.10;1.00;;;;;;5116097;28;20176;-45
2024/01/21 10:22:21;;;;;;;13.77;11.00;;;4.10;1.00;;;;;;5098216;28;20421;-47
2024/01/21 10:24:48;;;;;;;14.10;10.53;;;4.40;1.00;;;;;;5115098;28;20453;-44
2024/01/21 10:27:15;;;;;;;44.97;16.43;;;4.90;1.00;;;;;;5114994;28;20505;-42
2024/01/21 10:29:42;;;;;;;14.00;12.03;;;7.80;1.00;;;;;;5114064;28;20422;-42
2024/01/21 10:32:12;;;;;;;12.70;11.07;;;9.00;96.30;;;;;;5095903;28;20513;-43
2024/01/21 10:34:43;;;;;;;13.57;10.73;;;9.00;1.00;;;;;;5113409;28;20485;-42
2024/01/21 10:37:08;;;;;;;11.43;10.33;;;9.30;1.00;;;;;;5114774;28;20452;-43
2024/01/21 10:39:37;;;;;;;9.50;8.50;;;9.30;1.00;;;;;;5114445;28;20406;-42
2024/01/21 10:42:05;;;;;;;9.87;8.87;;;8.80;1.00;;;;;;5115392;28;20167;-42
2024/01/21 10:44:31;;;;;;;10.60;9.20;;;7.40;1.00;;;;;;5096923;28;20493;-41
2024/01/21 10:46:57;;;;;;;10.03;9.03;;;6.50;1.00;;;;;;5096613;28;20697;-42
2024/01/21 10:49:23;;;;;;;8.80;7.90;;;5.90;1.00;;;;;;5095255;28;20432;-43
2024/01/21 10:51:51;;;;;;;10.40;8.80;;;5.20;1.00;;;;;;5098536;28;20240;-43
2024/01/21 10:54:17;;;;;;;10.30;9.27;;;5.10;1.00;;;;;;5120110;28;20178;-44
2024/01/21 10:56:43;;;;;;;9.87;8.80;;;5.20;1.00;;;;;;5120048;28;20803;-45
2024/01/21 10:59:10;;;;;;;10.50;8.90;;;5.30;1.00;;;;;;5102083;28;20191;-44
2024/01/21 11:01:36;;;;;;;9.33;8.30;;;5.30;1.00;;;;;;5119767;28;20438;-43
2024/01/21 11:04:10;;;;;;;10.63;7.87;;;5.30;1.00;;;;;;5118490;28;20529;-43
2024/01/21 11:06:35;;;;;;;9.13;8.23;;;5.50;1.00;;;;;;5100758;28;20457;-44
2024/01/21 11:09:03;;;;;;;10.00;9.00;;;5.50;1.00;;;;;;5118175;28;20810;-43
2024/01/21 11:11:29;;;;;;;11.40;8.03;;;5.60;1.00;;;;;;5117566;28;20235;-43
2024/01/21 11:13:55;;;;;;;8.83;7.93;;;5.60;1.00;;;;;;5117839;28;20425;-42
2024/01/21 11:16:26;;;;;;;9.70;8.70;;;5.70;1.00;;;;;;5100017;28;20570;-42
2024/01/21 11:19:01;;;;;;;8.77;7.87;;;5.70;1.00;;;;;;5115816;28;20577;-44
2024/01/21 11:21:28;;;;;;;9.30;8.33;;;5.70;1.00;;;;;;5117232;28;20462;-44
2024/01/21 11:24:04;;;;;;;9.97;8.60;;;5.60;1.00;;;;;;5117572;28;21025;-43
2024/01/21 11:26:30;;;;;;;11.07;8.83;;;5.40;1.00;;;;;;5117367;28;20471;-41
2024/01/21 11:29:00;;;;;;;9.07;8.13;;;5.50;1.00;;;;;;5116221;28;20414;-45
2024/01/21 11:31:26;;;;;;;9.87;8.13;;;5.30;1.00;;;;;;5118090;28;20421;-43
2024/01/21 11:34:06;;;;;;;10.80;9.00;;;5.20;1.00;;;;;;5099616;28;20587;-42
2024/01/21 11:36:33;;;;;;;11.13;9.93;;;5.10;1.00;;;;;;5117536;28;20413;-42
2024/01/21 11:39:00;;;;;;;14.40;12.87;;;5.20;1.00;;;;;;5117668;28;20451;-43
2024/01/21 11:41:37;;;;;;;17.13;13.07;;;5.20;1.00;;;;;;5116595;28;20861;-45
2024/01/21 11:44:09;;;;;;;15.00;12.70;;;5.30;1.00;;;;;;5099066;28;20421;-44
2024/01/21 11:46:36;;;;;;;15.53;12.83;;;5.20;1.00;;;;;;5116080;28;20479;-42
2024/01/21 11:49:02;;;;;;;20.57;14.40;;;5.30;1.00;;;;;;5097181;28;20673;-44
2024/01/21 11:51:28;;;;;;;19.60;15.17;;;5.50;1.00;;;;;;5117026;28;20437;-43
2024/01/21 11:53:54;;;;;;;24.00;16.13;;;5.60;1.00;;;;;;5116577;28;20522;-41
2024/01/21 11:56:19;;;;;;;15.37;12.13;;;5.90;1.00;;;;;;5116295;28;20491;-44
2024/01/21 11:58:45;;;;;;;14.40;11.20;;;6.30;1.00;;;;;;5098974;28;20669;-45
2024/01/21 12:01:10;;;;;;;11.77;10.03;;;6.80;1.00;;;;;;5116069;28;20464;-44
2024/01/21 12:03:36;;;;;;;15.70;9.57;;;7.30;1.00;;;;;;5115854;28;20216;-42
2024/01/21 12:06:02;;;;;;;11.40;9.30;;;7.80;1.00;;;;;;5116059;28;20224;-41
2024/01/21 12:08:28;;;;;;;11.13;8.70;;;8.00;1.00;;;;;;5097737;28;20431;-45
2024/01/21 12:10:53;;;;;;;11.47;8.60;;;8.30;1.00;;;;;;5099668;28;20425;-44
2024/01/21 12:13:22;;;;;;;9.67;8.13;;;8.80;1.00;;;;;;5099317;28;20240;-43
2024/01/21 12:15:51;;;;;;;9.30;8.37;;;8.90;1.00;;;;;;5117232;28;20260;-42
2024/01/21 12:18:17;;;;;;;9.43;7.63;;;9.80;1.00;;;;;;5099142;28;20478;-43
2024/01/21 12:20:43;;;;;;;9.60;8.60;;;10.80;1.00;;;;;;5116609;28;20497;-47
2024/01/21 12:23:21;;;;;;;11.43;8.40;;;12.60;1.00;;;;;;5099250;28;20502;-46
2024/01/21 12:25:50;;;;;;;10.07;8.53;;;14.20;1.00;;;;;;5116048;28;20507;-44
2024/01/21 12:28:16;;;;;;;8.67;7.77;;;14.30;1.00;;;;;;5116890;28;20528;-43
2024/01/21 12:30:41;;;;;;;9.07;8.17;;;15.10;1.00;;;;;;5116191;28;20496;-44
2024/01/21 12:33:07;;;;;;;8.30;7.50;;;16.10;1.00;;;;;;5116804;28;20416;-41
2024/01/21 12:35:32;;;;;;;8.83;7.83;;;17.40;1.00;;;;;;5098836;28;20613;-44
2024/01/21 12:38:02;;;;;;;9.00;8.03;;;18.30;1.00;;;;;;5116582;28;20245;-42
2024/01/21 12:40:27;;;;;;;8.40;7.70;;;19.10;1.00;;;;;;5097945;28;20187;-44